Time;durP1;ratioP1;P1;durP2;ratioP2;P2;SDS_P1;SDS_P2;PMS_P1;PMS_P2;Temp;Humidity;BMP_temperature;BMP_pressure;BME280_temperature;BME280_humidity;BME280_pressure;Samples;Min_cycle;Max_cycle;Signal;HPM_P1;HPM_P2
2021/03/29 00:00:10;;;;;;;3.50;1.10;;;32.10;13.40;;;;;;5118792;27;20071;-60
2021/03/29 00:02:37;;;;;;;3.08;0.88;;;32.10;13.40;;;;;;5116856;27;20087;-58
2021/03/29 00:05:04;;;;;;;2.65;0.98;;;32.10;13.20;;;;;;5119588;27;20733;-59
2021/03/29 00:07:33;;;;;;;4.63;1.25;;;32.00;13.10;;;;;;5112463;27;20095;-61
2021/03/29 00:10:04;;;;;;;4.72;0.93;;;32.00;13.20;;;;;;5115283;27;20082;-58
2021/03/29 00:12:32;;;;;;;6.68;1.20;;;32.00;13.80;;;;;;5115376;27;20072;-59
2021/03/29 00:14:58;;;;;;;5.75;0.88;;;31.90;13.80;;;;;;5116196;27;20083;-57
2021/03/29 00:17:25;;;;;;;2.78;1.02;;;31.70;13.80;;;;;;5115770;27;20072;-60
2021/03/29 00:19:52;;;;;;;5.88;1.27;;;31.80;14.20;;;;;;5118945;27;20173;-60
2021/03/29 00:22:20;;;;;;;3.58;1.17;;;31.70;13.90;;;;;;5112833;27;20107;-60
2021/03/29 00:24:47;;;;;;;9.52;5.05;;;31.70;13.70;;;;;;5113017;27;20065;-59
2021/03/29 00:27:14;;;;;;;3.88;1.27;;;31.80;13.50;;;;;;5114469;27;20216;-62
2021/03/29 00:29:41;;;;;;;4.78;1.55;;;31.70;14.00;;;;;;5099361;27;20080;-61
2021/03/29 00:32:10;;;;;;;8.25;1.35;;;31.70;13.50;;;;;;5112566;27;20435;-58
2021/03/29 00:34:37;;;;;;;7.40;1.40;;;31.50;13.20;;;;;;5117164;27;20096;-59
2021/03/29 00:37:05;;;;;;;3.30;1.20;;;31.50;13.40;;;;;;5115533;27;20082;-62
2021/03/29 00:39:32;;;;;;;6.85;1.10;;;31.40;13.60;;;;;;5097704;27;20520;-60
2021/03/29 00:41:59;;;;;;;4.63;1.30;;;31.60;13.10;;;;;;5112089;27;20095;-61
2021/03/29 00:44:27;;;;;;;4.35;1.10;;;31.60;13.20;;;;;;5110649;27;20083;-63
2021/03/29 00:46:54;;;;;;;8.07;1.40;;;31.70;13.70;;;;;;5111170;27;20508;-62
2021/03/29 00:49:22;;;;;;;4.20;1.40;;;31.60;12.90;;;;;;5118421;27;20171;-60
2021/03/29 00:51:49;;;;;;;7.07;1.48;;;31.60;13.20;;;;;;5115139;27;20162;-60
2021/03/29 00:54:16;;;;;;;3.22;1.20;;;31.50;13.80;;;;;;5113652;27;20086;-61
2021/03/29 00:56:43;;;;;;;3.13;1.10;;;31.30;14.00;;;;;;5114147;27;20068;-58
2021/03/29 00:59:10;;;;;;;2.28;1.05;;;31.20;14.10;;;;;;5096918;28;20076;-60
2021/03/29 01:01:48;;;;;;;6.28;1.60;;;31.00;14.10;;;;;;5116165;27;20094;-59
2021/03/29 01:04:15;;;;;;;6.57;1.25;;;31.10;14.40;;;;;;5111235;27;20113;-61
2021/03/29 01:06:48;;;;;;;4.70;0.80;;;31.00;14.30;;;;;;5116593;27;20072;-60
2021/03/29 01:09:19;;;;;;;4.10;1.00;;;31.30;14.10;;;;;;5109529;27;20091;-61
2021/03/29 01:11:52;;;;;;;6.93;1.38;;;31.40;13.80;;;;;;5114391;27;20119;-57
2021/03/29 01:14:25;;;;;;;6.45;1.30;;;31.10;13.80;;;;;;5110573;27;20077;-62
2021/03/29 01:17:11;;;;;;;8.30;1.17;;;31.10;14.00;;;;;;5111838;27;20075;-59
2021/03/29 01:20:01;;;;;;;6.75;2.30;;;30.80;13.90;;;;;;5116250;27;20072;-60
2021/03/29 01:22:35;;;;;;;6.57;1.52;;;30.50;14.20;;;;;;5098547;28;20125;-60
2021/03/29 01:25:15;;;;;;;6.95;1.50;;;30.80;14.60;;;;;;5115131;27;20080;-57
2021/03/29 01:27:47;;;;;;;6.30;1.30;;;30.50;14.30;;;;;;5113742;27;20562;-60
2021/03/29 01:30:15;;;;;;;6.22;1.92;;;30.20;14.50;;;;;;5113248;28;20104;-60
2021/03/29 01:32:45;;;;;;;6.63;1.75;;;30.00;14.70;;;;;;5107580;28;20543;-60
2021/03/29 01:35:17;;;;;;;8.65;3.38;;;29.70;15.20;;;;;;5110679;28;20122;-61
2021/03/29 01:37:50;;;;;;;10.05;2.38;;;29.40;14.90;;;;;;5114567;28;20543;-59
2021/03/29 01:40:19;;;;;;;4.75;1.48;;;29.20;15.10;;;;;;5110942;28;20080;-58
2021/03/29 01:42:48;;;;;;;7.05;1.60;;;29.00;15.30;;;;;;5115258;28;20532;-58
2021/03/29 01:45:15;;;;;;;8.70;1.50;;;28.90;15.40;;;;;;5116248;28;20154;-61
2021/03/29 01:47:42;;;;;;;13.70;3.47;;;28.80;16.10;;;;;;5113633;28;20206;-59
2021/03/29 01:50:13;;;;;;;10.23;4.55;;;28.70;15.80;;;;;;5112424;28;20072;-60
2021/03/29 01:52:40;;;;;;;18.10;7.20;;;28.50;16.00;;;;;;5118281;28;20091;-60
2021/03/29 01:55:09;;;;;;;11.82;3.05;;;28.40;15.90;;;;;;5113141;28;20083;-60
2021/03/29 01:57:36;;;;;;;11.95;5.10;;;28.20;15.80;;;;;;5113602;28;20073;-59
2021/03/29 02:00:25;;;;;;;17.55;7.82;;;28.10;16.20;;;;;;5111761;28;20068;-59
2021/03/29 02:02:53;;;;;;;17.17;6.15;;;27.90;16.30;;;;;;5110354;28;20547;-60
2021/03/29 02:05:19;;;;;;;16.85;5.75;;;27.70;16.70;;;;;;5116069;28;20547;-61
2021/03/29 02:07:47;;;;;;;8.73;3.67;;;27.60;16.70;;;;;;5111641;28;20567;-61
2021/03/29 02:10:20;;;;;;;11.45;2.83;;;27.50;17.10;;;;;;5090645;28;20111;-57
2021/03/29 02:12:47;;;;;;;12.88;3.63;;;27.40;17.30;;;;;;5114562;28;20098;-59
2021/03/29 02:15:22;;;;;;;10.02;3.75;;;27.30;17.70;;;;;;5111758;28;20071;-60
2021/03/29 02:17:52;;;;;;;7.85;3.70;;;27.10;17.80;;;;;;5109144;28;20127;-61
2021/03/29 02:20:26;;;;;;;14.38;4.53;;;27.00;17.90;;;;;;5114768;28;20537;-61
2021/03/29 02:22:53;;;;;;;20.20;9.77;;;26.80;18.90;;;;;;5110131;28;20666;-60
2021/03/29 02:25:24;;;;;;;23.90;13.48;;;26.70;18.40;;;;;;5117242;28;20115;-61
2021/03/29 02:27:51;;;;;;;23.60;10.82;;;26.60;18.60;;;;;;5112272;28;20080;-59
2021/03/29 02:30:25;;;;;;;23.23;8.48;;;26.50;19.00;;;;;;5097210;28;20079;-60
2021/03/29 02:32:53;;;;;;;17.70;8.13;;;26.30;19.30;;;;;;5113370;28;20064;-63
2021/03/29 02:35:24;;;;;;;19.75;11.20;;;26.20;19.80;;;;;;5108812;28;20083;-59
2021/03/29 02:37:55;;;;;;;21.85;11.60;;;26.00;20.20;;;;;;5118211;27;20100;-63
2021/03/29 02:40:23;;;;;;;23.17;9.75;;;25.90;20.30;;;;;;5117571;27;20091;-59
2021/03/29 02:42:54;;;;;;;21.65;9.27;;;25.80;20.40;;;;;;5117635;27;20209;-61
2021/03/29 02:45:24;;;;;;;26.17;8.27;;;25.60;20.70;;;;;;5113410;27;20428;-62
2021/03/29 02:47:53;;;;;;;20.00;8.63;;;25.50;20.80;;;;;;5112210;27;20111;-59
2021/03/29 02:50:23;;;;;;;20.35;9.02;;;25.40;21.10;;;;;;5113222;27;20076;-63
2021/03/29 02:52:54;;;;;;;26.80;9.20;;;25.30;21.10;;;;;;5120565;27;20068;-62
2021/03/29 02:55:23;;;;;;;22.83;8.15;;;25.10;21.50;;;;;;5120536;27;20072;-60
2021/03/29 02:57:53;;;;;;;23.60;8.20;;;25.00;21.90;;;;;;5115205;27;20072;-59
2021/03/29 03:00:23;;;;;;;25.90;7.32;;;24.90;22.10;;;;;;5127154;27;20462;-59
2021/03/29 03:02:53;;;;;;;14.65;5.63;;;24.80;22.40;;;;;;5119698;27;20072;-61
2021/03/29 03:05:24;;;;;;;19.98;5.18;;;24.70;22.60;;;;;;5094151;28;20159;-60
2021/03/29 03:07:52;;;;;;;24.35;5.85;;;24.60;22.50;;;;;;5117247;27;20114;-60
2021/03/29 03:10:19;;;;;;;25.13;6.88;;;24.50;22.50;;;;;;5121569;27;20103;-60
2021/03/29 03:12:47;;;;;;;23.13;8.45;;;24.30;22.60;;;;;;5079554;28;20186;-58
2021/03/29 03:15:26;;;;;;;22.55;9.30;;;24.20;22.70;;;;;;5118956;27;20072;-58
2021/03/29 03:17:55;;;;;;;24.50;9.20;;;24.20;23.30;;;;;;5114336;27;20076;-60
2021/03/29 03:20:21;;;;;;;24.95;8.98;;;24.10;23.10;;;;;;5116786;27;20611;-59
2021/03/29 03:22:58;;;;;;;28.25;9.48;;;24.00;23.40;;;;;;5116583;27;20087;-61
2021/03/29 03:25:36;;;;;;;28.13;8.90;;;23.90;23.70;;;;;;5118747;27;20072;-59
2021/03/29 03:28:06;;;;;;;22.90;7.35;;;23.80;23.80;;;;;;5116188;27;20127;-58
2021/03/29 03:30:35;;;;;;;26.00;7.55;;;23.70;24.00;;;;;;5095936;27;20075;-58
2021/03/29 03:33:04;;;;;;;21.85;7.30;;;23.60;24.20;;;;;;5113321;27;20104;-58
2021/03/29 03:35:31;;;;;;;21.58;6.68;;;23.50;24.40;;;;;;5117804;27;20671;-55
2021/03/29 03:38:13;;;;;;;31.67;7.13;;;23.50;24.60;;;;;;5113264;27;20159;-59
2021/03/29 03:40:43;;;;;;;19.35;6.93;;;23.40;24.80;;;;;;5101927;27;20125;-56
2021/03/29 03:43:12;;;;;;;21.33;6.38;;;23.30;25.00;;;;;;5114589;27;20080;-61
2021/03/29 03:45:59;;;;;;;19.83;5.88;;;23.20;25.10;;;;;;5093573;27;20068;-58
2021/03/29 03:48:26;;;;;;;26.13;7.10;;;23.20;25.30;;;;;;5114742;27;20100;-56
2021/03/29 03:50:53;;;;;;;27.77;6.70;;;23.10;25.40;;;;;;5114288;27;20096;-59
2021/03/29 03:53:21;;;;;;;18.67;6.13;;;23.00;25.50;;;;;;5115058;27;20094;-58
2021/03/29 03:55:53;;;;;;;25.77;7.45;;;22.90;25.80;;;;;;5111282;27;20512;-59
2021/03/29 03:58:19;;;;;;;26.15;7.72;;;22.80;25.90;;;;;;5112713;27;20561;-59
2021/03/29 04:00:47;;;;;;;37.67;8.20;;;22.80;25.90;;;;;;5116901;27;20079;-59
2021/03/29 04:03:14;;;;;;;29.73;7.88;;;22.70;26.00;;;;;;5111865;27;20525;-58
2021/03/29 04:05:41;;;;;;;24.13;7.45;;;22.70;26.40;;;;;;5112451;27;20074;-59
2021/03/29 04:08:10;;;;;;;28.02;8.32;;;22.60;26.70;;;;;;5113769;27;20084;-57
2021/03/29 04:13:09;;;;;;;42.75;9.27;;;22.50;26.30;;;;;;5116059;27;20084;-60
2021/03/29 04:15:35;;;;;;;37.55;10.45;;;22.40;26.40;;;;;;5120235;27;20108;-58
2021/03/29 04:18:02;;;;;;;28.63;8.55;;;22.40;26.70;;;;;;5114865;27;20117;-60
2021/03/29 04:20:29;;;;;;;22.38;8.13;;;22.40;26.60;;;;;;5111932;27;20090;-58
2021/03/29 04:22:56;;;;;;;30.70;7.90;;;22.40;26.60;;;;;;5116239;27;20094;-59
2021/03/29 04:25:23;;;;;;;32.83;8.50;;;22.30;26.30;;;;;;5113497;27;20064;-60
2021/03/29 04:27:49;;;;;;;34.35;8.18;;;22.30;26.60;;;;;;5110830;27;20178;-59
2021/03/29 04:30:17;;;;;;;31.85;7.07;;;22.30;26.20;;;;;;5110678;27;20107;-60
2021/03/29 04:32:46;;;;;;;26.60;8.10;;;22.30;26.10;;;;;;5118442;27;20400;-58
2021/03/29 04:35:14;;;;;;;25.55;7.53;;;22.30;26.50;;;;;;5096062;28;20163;-57
2021/03/29 04:37:42;;;;;;;28.50;6.65;;;22.20;26.50;;;;;;5110420;27;20064;-58
2021/03/29 04:40:09;;;;;;;27.42;7.05;;;22.20;26.00;;;;;;5111642;27;20072;-59
2021/03/29 04:42:35;;;;;;;20.58;6.75;;;22.10;26.20;;;;;;5109657;27;20072;-61
2021/03/29 04:45:03;;;;;;;27.38;6.53;;;22.10;26.20;;;;;;5110189;27;20163;-62
2021/03/29 04:47:29;;;;;;;20.60;6.15;;;21.90;26.40;;;;;;5113073;27;20123;-60
2021/03/29 04:49:58;;;;;;;28.60;6.95;;;21.90;26.80;;;;;;5109702;27;20068;-61
2021/03/29 04:52:24;;;;;;;20.15;6.57;;;21.80;26.80;;;;;;5112178;27;20563;-60
2021/03/29 04:54:51;;;;;;;29.17;7.22;;;21.80;26.90;;;;;;5096485;28;20068;-60
2021/03/29 04:57:18;;;;;;;35.33;8.65;;;21.70;27.00;;;;;;5116080;27;20074;-59
2021/03/29 04:59:45;;;;;;;41.65;8.52;;;21.60;27.10;;;;;;5114307;27;20077;-61
2021/03/29 05:02:11;;;;;;;28.15;8.90;;;21.60;27.30;;;;;;5114925;27;20073;-58
2021/03/29 05:04:38;;;;;;;41.15;8.75;;;21.50;27.30;;;;;;5111542;27;20082;-60
2021/03/29 05:07:12;;;;;;;50.08;10.00;;;21.40;27.30;;;;;;5117034;27;20068;-59
2021/03/29 05:09:39;;;;;;;47.47;11.40;;;21.40;27.30;;;;;;5113442;27;20595;-59
2021/03/29 05:12:15;;;;;;;49.42;11.32;;;21.40;27.30;;;;;;5113833;27;20103;-58
2021/03/29 05:14:42;;;;;;;65.47;12.07;;;21.30;27.30;;;;;;5107167;27;20488;-61
2021/03/29 05:17:10;;;;;;;67.45;13.95;;;21.20;27.20;;;;;;5091991;27;20076;-60
2021/03/29 05:19:37;;;;;;;74.10;14.43;;;21.20;26.80;;;;;;5114590;27;20080;-62
2021/03/29 05:22:08;;;;;;;76.57;17.38;;;21.10;27.10;;;;;;5117407;27;20508;-59
2021/03/29 05:24:35;;;;;;;86.18;17.58;;;21.10;27.20;;;;;;5116578;27;20091;-60
2021/03/29 05:27:02;;;;;;;86.28;18.13;;;21.10;27.50;;;;;;5114827;27;20143;-58
2021/03/29 05:29:40;;;;;;;74.68;16.95;;;21.10;27.40;;;;;;5112227;27;20071;-61
2021/03/29 05:32:13;;;;;;;79.90;16.48;;;21.10;27.30;;;;;;5117461;27;20072;-59
2021/03/29 05:34:40;;;;;;;84.13;17.83;;;21.00;27.10;;;;;;5116109;28;20087;-60
2021/03/29 05:37:07;;;;;;;99.35;16.35;;;21.00;27.10;;;;;;5099003;28;20551;-59
2021/03/29 05:39:34;;;;;;;84.15;18.10;;;20.90;27.30;;;;;;5116062;28;20084;-60
2021/03/29 05:42:01;;;;;;;82.05;16.75;;;20.90;27.30;;;;;;5099651;28;20155;-61
2021/03/29 05:44:28;;;;;;;96.35;20.23;;;20.80;27.50;;;;;;5118055;28;20291;-60
2021/03/29 05:46:55;;;;;;;83.38;19.30;;;20.80;27.80;;;;;;5117195;28;20076;-61
2021/03/29 05:49:21;;;;;;;86.57;20.98;;;20.80;27.60;;;;;;5118515;28;20104;-59
2021/03/29 05:51:48;;;;;;;85.60;22.08;;;20.80;27.70;;;;;;5116976;28;20072;-61
2021/03/29 05:54:14;;;;;;;87.30;20.25;;;20.80;28.00;;;;;;5083658;28;20156;-59
2021/03/29 05:56:42;;;;;;;89.18;20.13;;;20.80;28.10;;;;;;5119001;28;20516;-58
2021/03/29 05:59:25;;;;;;;91.47;20.10;;;20.70;27.90;;;;;;5115223;28;20075;-60
2021/03/29 06:01:54;;;;;;;72.15;20.40;;;20.70;27.80;;;;;;5118012;28;20074;-58
2021/03/29 06:04:49;;;;;;;84.75;18.48;;;20.60;27.80;;;;;;5112513;28;20196;-59
2021/03/29 06:07:31;;;;;;;66.47;19.13;;;20.60;27.80;;;;;;5117002;28;20072;-60
2021/03/29 06:10:08;;;;;;;70.03;17.35;;;20.50;28.10;;;;;;5117410;28;20140;-59
2021/03/29 06:12:46;;;;;;;69.80;18.70;;;20.40;28.20;;;;;;5117426;27;20532;-61
2021/03/29 06:15:13;;;;;;;87.95;18.92;;;20.40;28.50;;;;;;5120335;27;20128;-60
2021/03/29 06:17:40;;;;;;;69.47;17.55;;;20.40;28.50;;;;;;5119125;27;20071;-60
2021/03/29 06:20:08;;;;;;;78.03;19.10;;;20.30;28.60;;;;;;5123761;27;20115;-60
2021/03/29 06:22:37;;;;;;;80.78;18.00;;;20.20;28.60;;;;;;5118828;27;20110;-58
2021/03/29 06:25:21;;;;;;;78.53;18.02;;;20.20;28.60;;;;;;5119256;27;20104;-61
2021/03/29 06:27:52;;;;;;;99.10;19.15;;;20.10;28.60;;;;;;5119925;27;20451;-56
2021/03/29 06:30:32;;;;;;;96.28;19.13;;;20.10;28.80;;;;;;5098169;28;20083;-60
2021/03/29 06:33:15;;;;;;;99.60;21.05;;;20.10;28.80;;;;;;5098276;27;20075;-61
2021/03/29 06:35:46;;;;;;;102.50;20.88;;;20.10;28.90;;;;;;5119244;27;20130;-59
2021/03/29 06:38:25;;;;;;;75.50;19.40;;;20.10;28.90;;;;;;5117010;27;20069;-60
2021/03/29 06:41:02;;;;;;;117.15;22.08;;;20.10;28.90;;;;;;5123581;27;20486;-59
2021/03/29 06:43:31;;;;;;;108.25;22.45;;;20.00;29.10;;;;;;5120107;27;20436;-60
2021/03/29 06:46:06;;;;;;;108.40;19.80;;;20.00;29.20;;;;;;5119188;27;20094;-60
2021/03/29 06:48:39;;;;;;;94.10;19.58;;;20.00;29.40;;;;;;5117489;27;20102;-60
2021/03/29 06:51:08;;;;;;;68.80;18.05;;;19.90;29.90;;;;;;5116214;27;20136;-61
2021/03/29 06:53:39;;;;;;;77.13;19.27;;;19.80;29.40;;;;;;5115936;27;20457;-58
2021/03/29 06:56:42;;;;;;;107.10;20.88;;;19.70;29.30;;;;;;5118547;27;20580;-57
2021/03/29 06:59:16;;;;;;;90.28;19.95;;;19.70;29.70;;;;;;5085332;27;20083;-59
2021/03/29 07:01:50;;;;;;;84.85;19.45;;;19.70;29.60;;;;;;5118239;27;20714;-61
2021/03/29 07:04:26;;;;;;;91.70;19.90;;;19.70;29.50;;;;;;5101453;28;20107;-60
2021/03/29 07:06:54;;;;;;;87.75;18.73;;;19.70;29.50;;;;;;5120237;27;20071;-60
2021/03/29 07:09:21;;;;;;;85.57;18.38;;;19.60;29.60;;;;;;5118293;27;20096;-58
2021/03/29 07:11:49;;;;;;;93.68;18.65;;;19.60;29.70;;;;;;5120212;27;20206;-60
2021/03/29 07:14:19;;;;;;;92.63;18.45;;;19.50;29.80;;;;;;5119271;27;20432;-59
2021/03/29 07:16:47;;;;;;;82.85;17.05;;;19.50;29.90;;;;;;5116466;27;20071;-56
2021/03/29 07:19:14;;;;;;;89.93;17.98;;;19.50;29.90;;;;;;5119370;27;20547;-57
2021/03/29 07:21:41;;;;;;;77.38;16.77;;;19.40;29.90;;;;;;5118266;27;20082;-60
2021/03/29 07:24:12;;;;;;;82.68;15.35;;;19.30;29.80;;;;;;5115062;27;20122;-59
2021/03/29 07:26:42;;;;;;;63.30;15.65;;;19.30;29.90;;;;;;5116244;27;20486;-61
2021/03/29 07:29:29;;;;;;;63.65;13.30;;;19.30;29.80;;;;;;5117320;27;20127;-61
2021/03/29 07:32:25;;;;;;;65.88;12.85;;;19.30;29.40;;;;;;5115826;27;20143;-59
2021/03/29 07:34:52;;;;;;;55.92;11.45;;;19.20;29.40;;;;;;5117256;27;20524;-60
2021/03/29 07:37:57;;;;;;;46.20;10.95;;;19.20;29.60;;;;;;5118169;27;20076;-58
2021/03/29 07:40:24;;;;;;;45.03;9.40;;;19.20;29.20;;;;;;5093349;27;20080;-59
2021/03/29 07:42:51;;;;;;;;;;;19.10;29.00;;;;;;5115887;27;20117;-61
2021/03/29 07:45:25;;;;;;;29.75;7.05;;;19.10;28.70;;;;;;5120306;27;20037;-60
2021/03/29 07:47:57;;;;;;;39.28;8.15;;;19.00;28.60;;;;;;5117885;27;20103;-59
2021/03/29 07:50:26;;;;;;;41.42;8.68;;;19.00;28.60;;;;;;5116463;27;20076;-59
2021/03/29 07:52:55;;;;;;;32.70;7.50;;;19.00;28.70;;;;;;5096810;27;20478;-59
2021/03/29 07:55:43;;;;;;;24.70;6.85;;;19.00;28.90;;;;;;5115693;27;20072;-59
2021/03/29 07:58:21;;;;;;;35.55;7.15;;;19.00;29.10;;;;;;5118480;27;20151;-59
2021/03/29 08:01:07;;;;;;;26.30;7.10;;;18.90;29.00;;;;;;5116783;27;20076;-59
2021/03/29 08:03:35;;;;;;;30.27;6.97;;;18.90;29.20;;;;;;5116678;27;20613;-60
2021/03/29 08:06:01;;;;;;;28.55;6.60;;;18.90;29.50;;;;;;5112475;27;20072;-59
2021/03/29 08:08:28;;;;;;;;;;;18.90;29.50;;;;;;5116115;27;20100;-56
2021/03/29 08:11:17;;;;;;;35.25;7.13;;;18.80;29.60;;;;;;5119231;27;19991;-59
2021/03/29 08:13:53;;;;;;;26.60;6.45;;;18.70;29.50;;;;;;5116705;27;20071;-58
2021/03/29 08:16:25;;;;;;;35.85;7.95;;;18.60;29.60;;;;;;5115725;27;20163;-56
2021/03/29 08:19:14;;;;;;;27.52;6.72;;;18.60;29.70;;;;;;5116082;27;20076;-57
2021/03/29 08:21:53;;;;;;;23.73;5.85;;;18.60;30.00;;;;;;5113397;27;20068;-58
2021/03/29 08:24:42;;;;;;;23.70;6.57;;;18.50;30.00;;;;;;5095395;27;20076;-57
2021/03/29 08:27:30;;;;;;;26.10;6.50;;;18.50;30.10;;;;;;5119173;27;20064;-54
2021/03/29 08:30:11;;;;;;;24.77;5.70;;;18.40;30.20;;;;;;5114903;27;20166;-58
2021/03/29 08:32:38;;;;;;;20.67;5.43;;;18.40;30.20;;;;;;5112203;27;20094;-60
2021/03/29 08:35:22;;;;;;;28.33;5.43;;;18.40;30.40;;;;;;5115425;27;20159;-59
2021/03/29 08:37:53;;;;;;;19.38;4.88;;;18.30;30.50;;;;;;5115610;27;20170;-60
2021/03/29 08:40:25;;;;;;;27.40;5.22;;;18.20;30.40;;;;;;5116031;27;20423;-59
2021/03/29 08:43:02;;;;;;;28.30;4.93;;;18.20;30.50;;;;;;5114989;27;20108;-59
2021/03/29 08:45:29;;;;;;;17.05;5.00;;;18.20;30.50;;;;;;5115283;27;20068;-60
2021/03/29 08:47:59;;;;;;;29.27;5.20;;;18.10;30.50;;;;;;5096535;27;20122;-59
2021/03/29 08:50:29;;;;;;;25.17;5.45;;;18.10;31.10;;;;;;5100162;27;20079;-59
2021/03/29 08:52:59;;;;;;;20.77;4.72;;;18.00;30.70;;;;;;5118301;27;20083;-59
2021/03/29 08:55:35;;;;;;;21.08;5.78;;;17.90;31.00;;;;;;5114127;27;20076;-60
2021/03/29 08:58:02;;;;;;;21.20;4.85;;;17.90;31.20;;;;;;5115708;27;20124;-60
2021/03/29 09:00:37;;;;;;;24.23;4.93;;;17.90;31.40;;;;;;5113268;27;20520;-58
2021/03/29 09:03:04;;;;;;;30.38;5.50;;;17.90;31.40;;;;;;5110206;27;20125;-60
2021/03/29 09:05:33;;;;;;;32.10;4.88;;;17.90;31.30;;;;;;5112760;27;20077;-54
2021/03/29 09:08:09;;;;;;;;;;;17.90;31.40;;;;;;5117653;27;20136;-59
2021/03/29 09:10:36;;;;;;;29.85;4.57;;;17.90;31.30;;;;;;5118887;27;20019;-55
2021/03/29 09:13:03;;;;;;;26.00;5.28;;;17.80;31.40;;;;;;5118129;27;20079;-60
2021/03/29 09:15:30;;;;;;;;;;;17.70;31.70;;;;;;5116857;27;20064;-59
2021/03/29 09:18:08;;;;;;;22.38;4.32;;;17.70;31.80;;;;;;5095167;28;19960;-60
2021/03/29 09:20:43;;;;;;;31.88;4.78;;;17.70;32.00;;;;;;5113611;27;20083;-59
2021/03/29 09:23:14;;;;;;;20.92;4.35;;;17.70;31.90;;;;;;5117490;27;20067;-57
2021/03/29 09:25:47;;;;;;;19.90;3.63;;;17.70;32.10;;;;;;5116862;27;20087;-56
2021/03/29 09:31:18;;;;;;;19.02;2.55;;;17.60;30.90;;;;;;5113196;27;20067;-57
2021/03/29 09:33:45;;;;;;;12.90;2.30;;;17.60;30.20;;;;;;5115406;27;20091;-60
2021/03/29 09:36:14;;;;;;;14.60;2.78;;;17.70;29.60;;;;;;5114469;28;20482;-57
2021/03/29 09:38:44;;;;;;;7.28;2.08;;;17.70;29.50;;;;;;5111594;28;20078;-58
2021/03/29 09:41:32;;;;;;;10.85;2.25;;;17.70;29.20;;;;;;5117658;28;20073;-58
2021/03/29 09:44:07;;;;;;;9.35;1.95;;;17.70;28.80;;;;;;5115837;28;20079;-59
2021/03/29 09:46:35;;;;;;;8.73;1.67;;;17.70;28.50;;;;;;5114962;28;20075;-58
2021/03/29 09:49:10;;;;;;;8.85;1.70;;;17.70;28.40;;;;;;5120560;27;20140;-56
2021/03/29 09:51:41;;;;;;;11.98;1.88;;;17.80;28.30;;;;;;5115997;27;20505;-58
2021/03/29 09:54:32;;;;;;;6.70;1.88;;;17.70;28.40;;;;;;5122246;27;20504;-59
2021/03/29 09:57:16;;;;;;;10.85;2.00;;;17.70;28.30;;;;;;5116783;27;20146;-60
2021/03/29 09:59:44;;;;;;;8.45;1.75;;;17.70;28.60;;;;;;5118145;27;20076;-57
2021/03/29 10:02:18;;;;;;;6.72;1.48;;;17.80;28.40;;;;;;5120855;27;20083;-60
2021/03/29 10:04:46;;;;;;;6.40;1.48;;;17.70;28.20;;;;;;5115856;27;20072;-56
2021/03/29 10:07:17;;;;;;;6.75;1.77;;;17.70;28.10;;;;;;5117263;27;20065;-59
2021/03/29 10:09:47;;;;;;;8.05;1.30;;;17.60;27.90;;;;;;5121244;27;20169;-58
2021/03/29 10:12:30;;;;;;;4.93;1.40;;;17.60;27.90;;;;;;5119534;27;20460;-57
2021/03/29 10:15:31;;;;;;;8.55;1.50;;;17.70;27.40;;;;;;5115795;27;20076;-59
2021/03/29 10:18:07;;;;;;;9.27;1.70;;;17.70;27.30;;;;;;5118798;27;20068;-58
2021/03/29 10:20:37;;;;;;;7.05;1.30;;;17.70;26.70;;;;;;5120679;27;20072;-58
2021/03/29 10:23:29;;;;;;;5.13;1.38;;;17.70;26.60;;;;;;5112894;27;20112;-60
2021/03/29 10:26:27;;;;;;;4.82;1.50;;;17.60;26.40;;;;;;5118178;27;20073;-59
2021/03/29 10:29:00;;;;;;;;;;;17.70;26.80;;;;;;5121136;27;20130;-58
2021/03/29 10:31:32;;;;;;;4.15;1.42;;;17.60;26.70;;;;;;5120319;27;19960;-58
2021/03/29 10:34:00;;;;;;;5.13;1.38;;;17.60;26.80;;;;;;5114708;27;20156;-58
2021/03/29 10:36:29;;;;;;;6.22;1.60;;;17.70;26.90;;;;;;5119098;27;20080;-59
2021/03/29 10:38:57;;;;;;;6.40;1.55;;;17.60;27.00;;;;;;5120068;27;20068;-61
2021/03/29 10:41:25;;;;;;;3.78;1.50;;;17.60;27.10;;;;;;5118380;27;20072;-58
2021/03/29 10:43:52;;;;;;;7.57;1.65;;;17.50;27.30;;;;;;5120797;27;20072;-58
2021/03/29 10:46:19;;;;;;;4.57;1.60;;;17.50;27.60;;;;;;5115789;27;20438;-58
2021/03/29 10:48:45;;;;;;;6.85;1.20;;;17.40;27.70;;;;;;5114622;27;20106;-59
2021/03/29 10:51:12;;;;;;;5.03;1.73;;;17.30;28.10;;;;;;5118017;27;20165;-57
2021/03/29 10:53:38;;;;;;;;;;;17.40;28.20;;;;;;5101701;27;20076;-59
2021/03/29 10:56:05;;;;;;;9.80;1.42;;;17.30;28.20;;;;;;5123610;27;19960;-56
2021/03/29 10:58:33;;;;;;;7.05;1.85;;;17.30;28.40;;;;;;5117883;27;20076;-58
2021/03/29 11:01:00;;;;;;;5.13;2.40;;;17.20;28.50;;;;;;5117868;27;20120;-56
2021/03/29 11:03:27;;;;;;;7.32;2.47;;;17.10;28.40;;;;;;5116075;27;20095;-59
2021/03/29 11:05:53;;;;;;;;;;;17.10;28.30;;;;;;5119667;27;20070;-57
2021/03/29 11:08:19;;;;;;;7.95;1.50;;;17.10;28.00;;;;;;5118094;27;20066;-59
2021/03/29 11:10:46;;;;;;;11.35;2.38;;;17.10;28.30;;;;;;5119492;27;20567;-60
2021/03/29 11:13:12;;;;;;;;;;;17.10;28.20;;;;;;5122116;27;20539;-59
2021/03/29 11:15:40;;;;;;;9.15;1.85;;;17.10;27.90;;;;;;5118513;27;20074;-58
2021/03/29 11:18:07;;;;;;;6.13;1.65;;;17.10;27.20;;;;;;5118268;27;20079;-59
2021/03/29 11:20:34;;;;;;;8.30;1.50;;;17.20;27.00;;;;;;5116278;27;20590;-59
2021/03/29 11:23:01;;;;;;;16.23;1.50;;;17.20;26.40;;;;;;5119720;27;20514;-59
2021/03/29 11:25:27;;;;;;;5.40;1.33;;;17.30;26.40;;;;;;5117901;27;20080;-58
2021/03/29 11:27:54;;;;;;;7.10;1.60;;;17.40;26.90;;;;;;5118549;27;20100;-58
2021/03/29 11:30:22;;;;;;;6.25;1.58;;;17.40;26.50;;;;;;5117932;27;20629;-60
2021/03/29 11:32:48;;;;;;;5.90;1.40;;;17.40;26.80;;;;;;5117848;27;20080;-60
2021/03/29 11:35:16;;;;;;;6.30;1.38;;;17.40;26.70;;;;;;5116768;27;20072;-60
2021/03/29 11:37:43;;;;;;;5.35;1.33;;;17.30;26.20;;;;;;5116491;27;20107;-59
2021/03/29 11:40:11;;;;;;;5.75;1.30;;;17.30;26.50;;;;;;5118401;27;20125;-57
2021/03/29 11:42:39;;;;;;;7.40;1.30;;;17.30;26.60;;;;;;5115574;27;20065;-60
2021/03/29 11:45:07;;;;;;;4.80;1.10;;;17.30;26.50;;;;;;5116369;27;20567;-57
2021/03/29 11:47:34;;;;;;;3.85;1.10;;;17.30;26.90;;;;;;5118813;27;20134;-58
2021/03/29 11:50:01;;;;;;;4.60;1.10;;;17.20;27.00;;;;;;5119165;27;20104;-59
2021/03/29 11:52:28;;;;;;;7.30;1.85;;;17.30;27.20;;;;;;5117659;27;20151;-59
2021/03/29 11:54:54;;;;;;;5.82;1.20;;;17.30;28.00;;;;;;5096125;27;20108;-59
2021/03/29 11:57:20;;;;;;;;;;;17.30;27.60;;;;;;5120209;27;20542;-59
2021/03/29 11:59:52;;;;;;;7.15;1.10;;;17.20;27.50;;;;;;5114650;27;19990;-58
2021/03/29 12:02:28;;;;;;;9.02;0.93;;;17.10;26.80;;;;;;5118288;27;20072;-59
2021/03/29 12:05:04;;;;;;;12.18;1.42;;;17.10;26.10;;;;;;5096712;28;20120;-60
2021/03/29 12:07:38;;;;;;;5.43;1.45;;;17.00;25.80;;;;;;5114701;27;20097;-59
2021/03/29 12:12:39;;;;;;;6.75;1.55;;;17.10;27.00;;;;;;5115004;27;20525;-59
2021/03/29 12:15:11;;;;;;;10.32;1.92;;;17.10;26.40;;;;;;5118744;27;20428;-58
2021/03/29 12:17:39;;;;;;;7.28;1.70;;;17.10;26.20;;;;;;5095619;28;20158;-59
2021/03/29 12:20:07;;;;;;;5.20;1.27;;;17.10;26.70;;;;;;5115681;27;20159;-59
2021/03/29 12:22:35;;;;;;;12.60;1.48;;;17.10;26.60;;;;;;5120275;27;20076;-58
2021/03/29 12:25:03;;;;;;;4.90;1.30;;;17.00;26.70;;;;;;5117187;27;20106;-56
2021/03/29 12:27:30;;;;;;;8.05;1.63;;;17.00;26.60;;;;;;5116315;27;20111;-60
2021/03/29 12:30:03;;;;;;;10.27;1.52;;;16.90;26.30;;;;;;5120782;27;20090;-56
2021/03/29 12:32:31;;;;;;;6.55;1.10;;;16.80;26.50;;;;;;5115038;27;20068;-59
2021/03/29 12:34:59;;;;;;;14.52;1.73;;;16.80;26.90;;;;;;5114640;27;20436;-59
2021/03/29 12:37:31;;;;;;;6.38;1.70;;;16.80;26.90;;;;;;5118332;27;20083;-57
2021/03/29 12:42:29;;;;;;;6.93;1.73;;;16.70;27.10;;;;;;5116036;27;20083;-59
2021/03/29 12:44:56;;;;;;;8.85;1.92;;;16.70;26.90;;;;;;5111953;27;20546;-59
2021/03/29 12:47:28;;;;;;;10.73;2.22;;;16.70;26.90;;;;;;5114224;27;20537;-59
2021/03/29 12:49:55;;;;;;;8.45;2.10;;;16.70;27.00;;;;;;5117360;27;20111;-59
2021/03/29 12:52:21;;;;;;;12.20;3.17;;;16.70;27.40;;;;;;5114924;27;20155;-58
2021/03/29 12:54:50;;;;;;;19.00;4.53;;;16.70;27.50;;;;;;5114171;27;20084;-58
2021/03/29 12:57:19;;;;;;;18.83;5.75;;;16.60;27.40;;;;;;5115156;27;20072;-57
2021/03/29 12:59:46;;;;;;;33.08;10.40;;;16.60;27.40;;;;;;5115056;27;20136;-58
2021/03/29 13:02:12;;;;;;;;;;;16.50;27.40;;;;;;5115581;27;20068;-58
2021/03/29 13:04:41;;;;;;;42.58;15.18;;;16.50;26.90;;;;;;5116751;27;19968;-60
2021/03/29 13:07:29;;;;;;;44.97;16.23;;;16.50;26.90;;;;;;5118128;27;20516;-59
2021/03/29 13:12:24;;;;;;;47.45;14.57;;;16.40;27.40;;;;;;5117533;27;20084;-59